createdAt,value
2023-04-02T00:04:53.335Z,22.2
2023-04-02T00:10:44.692Z,22.1
2023-04-02T00:16:35.522Z,22.1
2023-04-02T00:22:28.600Z,22
2023-04-02T00:28:20.879Z,22.5
2023-04-02T00:34:13.139Z,22.3
2023-04-02T00:40:04.471Z,22.3
2023-04-02T00:45:56.549Z,22.3
2023-04-02T00:51:48.202Z,22.3
2023-04-02T00:57:39.747Z,22.3
2023-04-02T01:03:17.513Z,22.2
2023-04-02T01:09:10.765Z,21.9
2023-04-02T01:15:02.528Z,22.2
2023-04-02T01:20:55.106Z,22.4
2023-04-02T01:26:47.408Z,22.3
2023-04-02T01:32:38.856Z,22.2
2023-04-02T01:38:30.341Z,22.2
2023-04-02T01:44:22.161Z,22.2
2023-04-02T01:50:13.105Z,22.2
2023-04-02T01:55:49.677Z,22.2
2023-04-02T02:01:41.449Z,21.9
2023-04-02T02:07:33.968Z,22.4
2023-04-02T02:13:25.188Z,22.3
2023-04-02T02:19:17.982Z,22.1
2023-04-02T02:25:09.214Z,21.9
2023-04-02T02:31:00.852Z,21.8
2023-04-02T02:36:52.725Z,21.8
2023-04-02T02:42:44.981Z,21.7
2023-04-02T02:48:37.543Z,21.7
2023-04-02T02:54:31.461Z,21.6
2023-04-02T03:00:22.816Z,21.7
2023-04-02T03:06:15.802Z,22.1
2023-04-02T03:12:07.435Z,22.3
2023-04-02T03:17:58.255Z,22.1
2023-04-02T03:23:35.671Z,21.9
2023-04-02T03:29:12.205Z,21.8
2023-04-02T03:34:49.055Z,21.7
2023-04-02T03:40:41.157Z,21.7
2023-04-02T03:46:32.247Z,21.6
2023-04-02T03:52:23.860Z,21.6
2023-04-02T03:58:12.643Z,21.6
2023-04-02T04:04:04.193Z,21.7
2023-04-02T04:09:55.476Z,22.3
2023-04-02T04:15:47.646Z,22.3
2023-04-02T04:21:39.604Z,22
2023-04-02T04:27:31.156Z,21.8
2023-04-02T04:33:23.892Z,21.7
2023-04-02T04:39:15.524Z,21.6
2023-04-02T04:45:07.055Z,21.6
2023-04-02T04:50:59.187Z,21.6
2023-04-02T04:57:07.216Z,21.4
2023-04-02T05:03:01.763Z,21.6
2023-04-02T05:08:53.329Z,22
2023-04-02T05:14:44.034Z,22.2
2023-04-02T05:20:20.875Z,22
2023-04-02T05:26:14.954Z,21.8
2023-04-02T05:32:05.622Z,21.7
2023-04-02T05:37:57.122Z,21.6
2023-04-02T05:43:48.225Z,21.5
2023-04-02T05:49:40.464Z,21.4
2023-04-02T05:55:32.185Z,21.6
2023-04-02T06:01:56.392Z,22.1
2023-04-02T06:07:48.378Z,22.1
2023-04-02T06:13:41.273Z,22
2023-04-02T06:19:32.458Z,21.9
2023-04-02T06:25:08.414Z,21.9
2023-04-02T06:30:59.470Z,21.9
2023-04-02T06:36:35.807Z,21.9
2023-04-02T06:42:11.058Z,21.8
2023-04-02T06:47:48.368Z,22.3
2023-04-02T06:53:24.953Z,22.1
2023-04-02T06:59:02.299Z,22.1
2023-04-02T07:04:38.897Z,22
2023-04-02T07:10:15.709Z,22
2023-04-02T07:15:36.669Z,22
2023-04-02T07:21:13.624Z,22
2023-04-02T07:26:52.229Z,21.8
2023-04-02T07:32:28.233Z,22.3
2023-04-02T07:38:04.822Z,22.2
2023-04-02T07:43:56.670Z,22.1
2023-04-02T07:49:36.330Z,22.1
2023-04-02T07:55:12.823Z,22.1
2023-04-02T08:01:05.144Z,22.1
2023-04-02T08:06:42.611Z,22.1
2023-04-02T08:12:36.851Z,22
2023-04-02T08:18:29.202Z,21.9
2023-04-02T08:24:17.595Z,22.3
2023-04-02T08:30:09.449Z,22.2
2023-04-02T08:36:01.530Z,22.1
2023-04-02T08:41:53.245Z,22.1
2023-04-02T08:47:37.973Z,22
2023-04-02T08:53:14.202Z,22.4
2023-04-02T08:58:35.220Z,22.3
2023-04-02T09:04:13.249Z,22.1
2023-04-02T09:10:07.760Z,22.1
2023-04-02T09:15:59.641Z,22.1
2023-04-02T09:22:05.172Z,22.5
2023-04-02T09:27:53.303Z,22.4
2023-04-02T09:33:45.057Z,22.3
2023-04-02T09:39:34.803Z,22.2
2023-04-02T09:45:39.503Z,22.2
2023-04-02T09:51:33.218Z,22.3
2023-04-02T09:57:24.504Z,22.6
2023-04-02T10:03:16.408Z,22.4
2023-04-02T10:08:56.075Z,22.3
2023-04-02T10:15:00.006Z,22.3
2023-04-02T10:21:06.830Z,22.3
2023-04-02T10:26:59.337Z,22.6
2023-04-02T10:32:51.460Z,22.4
2023-04-02T10:38:43.153Z,22.4
2023-04-02T10:44:45.968Z,22.3
2023-04-02T10:50:38.257Z,22.2
2023-04-02T10:56:15.892Z,22.1
2023-04-02T11:02:20.191Z,22.1
2023-04-02T11:08:29.067Z,22.3
2023-04-02T11:14:04.973Z,22.5
2023-04-02T11:20:00.993Z,22.3
2023-04-02T11:26:06.972Z,22.3
2023-04-02T11:31:43.912Z,22.2
2023-04-02T11:38:00.388Z,22.1
2023-04-02T11:43:46.989Z,22.5
2023-04-02T11:49:44.889Z,22.4
2023-04-02T11:55:46.664Z,22.3
2023-04-02T12:01:40.115Z,22.3
2023-04-02T12:07:33.081Z,22.3
2023-04-02T12:13:35.425Z,22.3
2023-04-02T12:19:11.596Z,22.3
2023-04-02T12:25:04.501Z,22.1
2023-04-02T12:30:56.380Z,22.5
2023-04-02T12:36:47.896Z,22.4
2023-04-02T12:42:38.861Z,22.3
2023-04-02T12:48:31.206Z,22.2
2023-04-02T12:54:21.748Z,22.2
2023-04-02T13:00:14.231Z,22.3
2023-04-02T13:06:06.245Z,22.2
2023-04-02T13:11:57.257Z,22.2
2023-04-02T13:17:48.595Z,22.4
2023-04-02T13:23:40.289Z,22.5
2023-04-02T13:29:31.035Z,22.4
2023-04-02T13:35:07.980Z,22.3
2023-04-02T13:40:45.062Z,22.3
2023-04-02T13:46:36.300Z,22.3
2023-04-02T13:52:28.414Z,22.3
2023-04-02T13:57:49.831Z,22.5
2023-04-02T14:03:41.261Z,22.7
2023-04-02T14:09:20.615Z,22.5
2023-04-02T14:15:12.349Z,22.4
2023-04-02T14:21:05.993Z,22.4
2023-04-02T14:26:58.149Z,22.4
2023-04-02T14:32:19.582Z,22.3
2023-04-02T14:37:56.485Z,22.3
2023-04-02T14:43:48.681Z,22.6
2023-04-02T14:49:40.612Z,22.7
2023-04-02T14:55:32.078Z,22.6
2023-04-02T15:01:24.142Z,22.4
2023-04-02T15:07:16.831Z,22.4
2023-04-02T15:13:21.001Z,22.4
2023-04-02T15:19:24.858Z,22.4
2023-04-02T15:25:15.732Z,22.6
2023-04-02T15:31:08.439Z,22.9
2023-04-02T15:37:01.192Z,22.7
2023-04-02T15:42:53.668Z,22.6
2023-04-02T15:48:45.668Z,22.6
2023-04-02T15:54:22.346Z,22.5
2023-04-02T16:00:16.807Z,22.5
2023-04-02T16:06:11.615Z,22.4
2023-04-02T16:12:00.281Z,22.6
2023-04-02T16:17:46.907Z,22.9
2023-04-02T16:23:58.801Z,22.8
2023-04-02T16:30:09.786Z,22.6
2023-04-02T16:36:32.927Z,22.6
2023-04-02T16:42:35.422Z,22.5
2023-04-02T16:48:35.385Z,22.4
2023-04-02T16:54:35.353Z,22.4
2023-04-02T17:00:12.349Z,22.6
2023-04-02T17:05:49.615Z,22.8
2023-04-02T17:11:41.382Z,22.6
2023-04-02T17:17:39.680Z,22.5
2023-04-02T17:23:31.356Z,22.4
2023-04-02T17:29:31.941Z,22.4
2023-04-02T17:35:23.972Z,22.4
2023-04-02T17:41:15.722Z,22.3
2023-04-02T17:46:36.856Z,22.4
2023-04-02T17:52:15.871Z,22.7
2023-04-02T17:58:07.409Z,22.6
2023-04-02T18:04:02.594Z,22.4
2023-04-02T18:09:54.151Z,22.3
2023-04-02T18:15:45.742Z,22.3
2023-04-02T18:21:40.137Z,22.3
2023-04-02T18:27:31.575Z,22.3
2023-04-02T18:33:08.744Z,22.2
2023-04-02T18:39:00.176Z,22.3
2023-04-02T18:44:51.325Z,22.6
2023-04-02T18:50:43.060Z,22.4
2023-04-02T18:56:34.087Z,22.3
2023-04-02T19:02:25.170Z,22.3
2023-04-02T19:08:20.577Z,22.2
2023-04-02T19:13:56.426Z,22.2
2023-04-02T19:19:47.621Z,22.1
2023-04-02T19:25:42.892Z,22.1
2023-04-02T19:31:34.451Z,22.3
2023-04-02T19:37:25.523Z,22.4
2023-04-02T19:43:01.281Z,22.3
2023-04-02T19:48:53.035Z,22.2
2023-04-02T19:54:29.307Z,22.2
2023-04-02T20:00:23.649Z,22.1
2023-04-02T20:06:15.508Z,22.1
2023-04-02T20:11:51.882Z,22.1
2023-04-02T20:17:43.700Z,22.1
2023-04-02T20:23:36.143Z,22.5
2023-04-02T20:28:56.535Z,22.4
2023-04-02T20:34:18.482Z,22.3
2023-04-02T20:39:55.491Z,22.2
2023-04-02T20:45:31.663Z,22.1
2023-04-02T20:51:08.783Z,22.1
2023-04-02T20:56:44.408Z,22.3
2023-04-02T21:02:35.692Z,23
2023-04-02T21:08:12.046Z,22.9
2023-04-02T21:14:03.854Z,22.8
2023-04-02T21:19:55.730Z,22.7
2023-04-02T21:25:48.363Z,22.4
2023-04-02T21:31:24.610Z,22.9
2023-04-02T21:37:07.957Z,23.2
2023-04-02T21:43:01.689Z,22.9
2023-04-02T21:48:54.111Z,22.8
2023-04-02T21:54:46.239Z,22.6
2023-04-02T22:00:22.968Z,22.8
2023-04-02T22:06:32.581Z,23.3
2023-04-02T22:12:23.662Z,23.1
2023-04-02T22:18:16.739Z,22.9
2023-04-02T22:24:08.910Z,22.9
2023-04-02T22:29:45.143Z,22.8
2023-04-02T22:35:06.540Z,23.3
2023-04-02T22:40:42.321Z,23.4
2023-04-02T22:46:33.535Z,23.2
2023-04-02T22:52:24.868Z,23.1
2023-04-02T22:58:16.715Z,22.9
2023-04-02T23:03:38.406Z,22.8
2023-04-02T23:09:14.927Z,23.4
2023-04-02T23:14:20.722Z,23.4
2023-04-02T23:19:56.543Z,23.2
2023-04-02T23:25:16.737Z,23.1
2023-04-02T23:30:52.987Z,23
2023-04-02T23:36:14.172Z,22.9
2023-04-02T23:42:05.913Z,23.4
2023-04-02T23:47:57.794Z,23.4
2023-04-02T23:53:49.120Z,23.2
2023-04-02T23:59:40.438Z,23.1
